Time,TemperatureF,DewpointF,PressureIn,WindDirection,WindDirectionDegrees,WindSpeedMPH,WindSpeedGustMPH,Humidity,HourlyPrecipIn,Conditions,Clouds,dailyrainin,SoftwareType,DateUTC
2013-09-04 00:00:00,63.0,58.4,29.78,NNW,338,0.0,0.2,85,0.00,,,0.00,WUHU216HW,2013-09-04 04:00:00,
2013-09-04 00:01:00,63.0,58.4,29.78,NNW,338,0.0,0.2,85,0.00,,,0.00,WUHU216HW,2013-09-04 04:01:00,
2013-09-04 00:06:00,62.8,58.2,29.78,WNW,293,0.0,0.0,85,0.00,,,0.00,WUHU216HW,2013-09-04 04:06:00,
2013-09-04 00:11:00,62.6,58.1,29.78,NNW,338,0.0,0.0,85,0.00,,,0.00,WUHU216HW,2013-09-04 04:11:00,
2013-09-04 00:16:00,62.3,58.1,29.78,NNW,338,0.0,0.0,86,0.00,,,0.00,WUHU216HW,2013-09-04 04:16:00,
2013-09-04 00:21:00,62.3,58.1,29.78,NNW,338,0.0,0.0,86,0.00,,,0.00,WUHU216HW,2013-09-04 04:21:00,
2013-09-04 00:26:00,62.3,58.1,29.78,NNW,338,0.0,0.0,86,0.00,,,0.00,WUHU216HW,2013-09-04 04:26:00,
2013-09-04 00:31:00,62.3,58.1,29.79,WNW,293,0.0,0.0,86,0.00,,,0.00,WUHU216HW,2013-09-04 04:31:00,
2013-09-04 00:36:00,62.1,57.9,29.78,NNW,338,0.0,0.0,86,0.00,,,0.00,WUHU216HW,2013-09-04 04:36:00,
2013-09-04 00:41:00,61.9,57.7,29.78,NNW,338,0.0,0.0,86,0.00,,,0.00,WUHU216HW,2013-09-04 04:41:00,
2013-09-04 00:46:00,61.9,57.7,29.78,WSW,248,0.7,1.1,86,0.00,,,0.00,WUHU216HW,2013-09-04 04:46:00,
2013-09-04 00:51:00,61.7,57.5,29.78,WSW,248,0.0,1.1,86,0.00,,,0.00,WUHU216HW,2013-09-04 04:51:00,
2013-09-04 00:56:00,61.7,57.5,29.78,West,270,0.0,0.7,86,0.00,,,0.00,WUHU216HW,2013-09-04 04:56:00,
2013-09-04 01:01:00,61.6,57.7,29.78,WSW,248,0.0,0.4,87,0.00,,,0.00,WUHU216HW,2013-09-04 05:01:00,
2013-09-04 01:06:00,61.6,57.7,29.78,WSW,248,0.0,0.4,87,0.00,,,0.00,WUHU216HW,2013-09-04 05:06:00,
2013-09-04 01:11:00,61.6,57.7,29.78,WSW,248,0.0,0.0,87,0.00,,,0.00,WUHU216HW,2013-09-04 05:11:00,
2013-09-04 01:16:00,61.6,57.7,29.78,WNW,293,0.0,0.0,87,0.00,,,0.00,WUHU216HW,2013-09-04 05:16:00,
2013-09-04 01:21:00,61.4,57.5,29.78,NW,315,0.4,0.9,87,0.00,,,0.00,WUHU216HW,2013-09-04 05:21:00,
2013-09-04 01:26:00,61.2,57.3,29.78,West,270,0.0,0.9,87,0.00,,,0.00,WUHU216HW,2013-09-04 05:26:00,
2013-09-04 01:31:00,61.2,57.3,29.78,West,270,0.0,0.4,87,0.00,,,0.00,WUHU216HW,2013-09-04 05:31:00,
2013-09-04 01:36:00,61.0,57.2,29.77,WSW,248,0.0,0.2,87,0.00,,,0.00,WUHU216HW,2013-09-04 05:36:00,
2013-09-04 01:41:00,61.0,57.2,29.78,WSW,248,0.0,0.4,87,0.00,,,0.00,WUHU216HW,2013-09-04 05:41:00,
2013-09-04 01:46:00,61.0,57.2,29.78,WSW,248,0.0,0.4,87,0.00,,,0.00,WUHU216HW,2013-09-04 05:46:00,
2013-09-04 01:51:00,60.8,57.0,29.78,WSW,248,0.0,0.4,87,0.00,,,0.00,WUHU216HW,2013-09-04 05:51:00,
2013-09-04 01:56:00,60.8,57.0,29.78,WSW,248,0.4,0.4,87,0.00,,,0.00,WUHU216HW,2013-09-04 05:56:00,
2013-09-04 02:01:00,60.8,57.0,29.78,WSW,248,0.0,0.4,87,0.00,,,0.00,WUHU216HW,2013-09-04 06:01:00,
2013-09-04 02:06:00,60.8,57.0,29.78,WSW,248,0.4,0.7,87,0.00,,,0.00,WUHU216HW,2013-09-04 06:06:00,
2013-09-04 02:11:00,60.7,56.8,29.78,WSW,248,0.0,0.7,87,0.00,,,0.00,WUHU216HW,2013-09-04 06:11:00,
2013-09-04 02:16:00,60.7,56.8,29.78,WSW,248,0.0,0.4,87,0.00,,,0.00,WUHU216HW,2013-09-04 06:16:00,
2013-09-04 02:21:00,60.5,56.6,29.78,WSW,248,0.0,0.4,87,0.00,,,0.00,WUHU216HW,2013-09-04 06:21:00,
2013-09-04 02:26:00,60.5,56.6,29.78,WSW,248,0.0,0.0,87,0.00,,,0.00,WUHU216HW,2013-09-04 06:26:00,
2013-09-04 02:31:00,60.5,56.6,29.79,WSW,248,0.2,0.2,87,0.00,,,0.00,WUHU216HW,2013-09-04 06:31:00,
2013-09-04 02:36:00,60.3,56.4,29.78,WSW,248,0.0,0.4,87,0.00,,,0.00,WUHU216HW,2013-09-04 06:36:00,
2013-09-04 02:41:00,60.3,56.4,29.78,SW,225,0.4,0.9,87,0.00,,,0.00,WUHU216HW,2013-09-04 06:41:00,
2013-09-04 02:46:00,60.1,56.3,29.79,WSW,248,0.0,0.9,87,0.00,,,0.00,WUHU216HW,2013-09-04 06:46:00,
2013-09-04 02:51:00,60.1,56.3,29.79,WSW,248,0.0,0.4,87,0.00,,,0.00,WUHU216HW,2013-09-04 06:51:00,
2013-09-04 02:56:00,60.1,56.6,29.78,WSW,248,0.0,0.0,88,0.00,,,0.00,WUHU216HW,2013-09-04 06:56:00,
2013-09-04 03:01:00,60.1,56.3,29.78,West,270,0.0,0.0,87,0.00,,,0.00,WUHU216HW,2013-09-04 07:01:00,
2013-09-04 03:06:00,59.9,56.1,29.79,WSW,248,0.7,0.7,87,0.00,,,0.00,WUHU216HW,2013-09-04 07:06:00,
2013-09-04 03:11:00,59.8,56.3,29.79,WSW,248,0.4,0.7,88,0.00,,,0.00,WUHU216HW,2013-09-04 07:11:00,
2013-09-04 03:16:00,59.8,56.3,29.79,WSW,248,0.0,0.7,88,0.00,,,0.00,WUHU216HW,2013-09-04 07:16:00,
2013-09-04 03:21:00,59.8,56.3,29.79,WNW,293,0.0,0.4,88,0.00,,,0.00,WUHU216HW,2013-09-04 07:21:00,
2013-09-04 03:26:00,59.6,56.1,29.79,WNW,293,0.0,0.0,88,0.00,,,0.00,WUHU216HW,2013-09-04 07:26:00,
2013-09-04 03:31:00,59.4,55.9,29.79,NW,315,0.0,0.0,88,0.00,,,0.00,WUHU216HW,2013-09-04 07:31:00,
2013-09-04 03:36:00,59.6,56.1,29.79,WSW,248,0.0,0.0,88,0.00,,,0.00,WUHU216HW,2013-09-04 07:36:00,
2013-09-04 03:41:00,59.6,56.1,29.79,WSW,248,0.0,0.0,88,0.00,,,0.00,WUHU216HW,2013-09-04 07:41:00,
2013-09-04 03:46:00,59.4,55.9,29.79,SW,225,0.0,0.7,88,0.00,,,0.00,WUHU216HW,2013-09-04 07:46:00,
2013-09-04 03:51:00,59.4,55.9,29.79,SW,225,0.0,0.7,88,0.00,,,0.00,WUHU216HW,2013-09-04 07:51:00,
2013-09-04 03:56:00,59.4,55.9,29.79,SW,225,0.0,0.4,88,0.00,,,0.00,WUHU216HW,2013-09-04 07:56:00,
2013-09-04 04:01:00,59.2,56.0,29.79,West,270,0.0,0.0,89,0.00,,,0.00,WUHU216HW,2013-09-04 08:01:00,
2013-09-04 04:06:00,59.2,55.7,29.79,West,270,0.0,0.0,88,0.00,,,0.00,WUHU216HW,2013-09-04 08:06:00,
2013-09-04 04:11:00,59.0,55.8,29.80,NNE,23,0.0,0.4,89,0.00,,,0.00,WUHU216HW,2013-09-04 08:11:00,
2013-09-04 04:16:00,59.0,55.8,29.80,NNE,23,0.0,0.4,89,0.00,,,0.00,WUHU216HW,2013-09-04 08:16:00,
2013-09-04 04:21:00,58.9,55.6,29.80,NNE,23,0.0,0.0,89,0.00,,,0.00,WUHU216HW,2013-09-04 08:21:00,
2013-09-04 04:26:00,58.9,55.6,29.80,NNE,23,0.0,0.0,89,0.00,,,0.00,WUHU216HW,2013-09-04 08:26:00,
2013-09-04 04:31:00,58.9,55.6,29.80,NNE,23,0.0,0.0,89,0.00,,,0.00,WUHU216HW,2013-09-04 08:31:00,
2013-09-04 04:36:00,58.7,55.4,29.81,NE,45,0.0,0.4,89,0.00,,,0.00,WUHU216HW,2013-09-04 08:36:00,
2013-09-04 04:41:00,58.7,55.4,29.81,WSW,248,0.0,0.4,89,0.00,,,0.00,WUHU216HW,2013-09-04 08:41:00,
2013-09-04 04:46:00,58.7,55.4,29.81,WSW,248,0.0,0.2,89,0.00,,,0.00,WUHU216HW,2013-09-04 08:46:00,
2013-09-04 04:51:00,58.7,55.4,29.81,WSW,248,0.0,0.2,89,0.00,,,0.00,WUHU216HW,2013-09-04 08:51:00,
2013-09-04 04:56:00,58.7,55.4,29.81,WSW,248,0.0,0.0,89,0.00,,,0.00,WUHU216HW,2013-09-04 08:56:00,
2013-09-04 05:01:00,58.5,55.3,29.81,WSW,248,0.0,0.0,89,0.00,,,0.00,WUHU216HW,2013-09-04 09:01:00,
2013-09-04 05:06:00,58.5,55.3,29.82,WSW,248,0.0,0.0,89,0.00,,,0.00,WUHU216HW,2013-09-04 09:06:00,
2013-09-04 05:11:00,58.5,55.3,29.82,SW,225,0.0,0.7,89,0.00,,,0.00,WUHU216HW,2013-09-04 09:11:00,
2013-09-04 05:16:00,58.3,55.1,29.82,WNW,293,0.0,0.7,89,0.00,,,0.00,WUHU216HW,2013-09-04 09:16:00,
2013-09-04 05:21:00,58.3,55.1,29.82,North,0,0.0,0.7,89,0.00,,,0.00,WUHU216HW,2013-09-04 09:21:00,
2013-09-04 05:26:00,58.3,55.1,29.82,NW,315,0.0,0.2,89,0.00,,,0.00,WUHU216HW,2013-09-04 09:26:00,
2013-09-04 05:31:00,58.3,55.1,29.82,WSW,248,0.4,0.7,89,0.00,,,0.00,WUHU216HW,2013-09-04 09:31:00,
2013-09-04 05:36:00,58.1,54.6,29.82,WNW,293,0.0,0.7,88,0.00,,,0.00,WUHU216HW,2013-09-04 09:36:00,
2013-09-04 05:41:00,58.1,54.6,29.83,West,270,0.0,0.4,88,0.00,,,0.00,WUHU216HW,2013-09-04 09:41:00,
2013-09-04 05:46:00,58.3,55.1,29.83,West,270,0.0,0.4,89,0.00,,,0.00,WUHU216HW,2013-09-04 09:46:00,
2013-09-04 05:51:00,58.3,55.1,29.83,WSW,248,0.0,0.0,89,0.00,,,0.00,WUHU216HW,2013-09-04 09:51:00,
2013-09-04 05:56:00,58.3,55.1,29.83,WSW,248,0.0,0.0,89,0.00,,,0.00,WUHU216HW,2013-09-04 09:56:00,
2013-09-04 06:01:00,58.3,55.1,29.83,WSW,248,0.0,0.4,89,0.00,,,0.00,WUHU216HW,2013-09-04 10:01:00,
2013-09-04 06:06:00,58.3,55.1,29.83,WSW,248,0.0,0.4,89,0.00,,,0.00,WUHU216HW,2013-09-04 10:06:00,
2013-09-04 06:11:00,58.1,54.9,29.83,ENE,68,0.0,0.4,89,0.00,,,0.00,WUHU216HW,2013-09-04 10:11:00,
2013-09-04 06:16:00,58.1,54.9,29.83,NNW,338,0.0,0.4,89,0.00,,,0.00,WUHU216HW,2013-09-04 10:16:00,
2013-09-04 06:21:00,58.1,54.9,29.83,NNE,23,0.2,0.7,89,0.00,,,0.00,WUHU216HW,2013-09-04 10:21:00,
2013-09-04 06:26:00,58.1,54.9,29.83,NNE,23,0.0,0.7,89,0.00,,,0.00,WUHU216HW,2013-09-04 10:26:00,
2013-09-04 06:31:00,58.1,54.9,29.83,NNE,23,0.0,0.4,89,0.00,,,0.00,WUHU216HW,2013-09-04 10:31:00,
2013-09-04 06:36:00,58.1,54.9,29.84,WNW,293,0.0,0.0,89,0.00,,,0.00,WUHU216HW,2013-09-04 10:36:00,
2013-09-04 06:41:00,58.1,54.9,29.84,ESE,113,0.0,0.4,89,0.00,,,0.00,WUHU216HW,2013-09-04 10:41:00,
2013-09-04 06:46:00,58.1,54.9,29.84,ESE,113,0.4,0.4,89,0.00,,,0.00,WUHU216HW,2013-09-04 10:46:00,
2013-09-04 06:51:00,58.1,54.9,29.84,NE,45,0.0,0.7,89,0.00,,,0.00,WUHU216HW,2013-09-04 10:51:00,
2013-09-04 06:56:00,58.1,54.9,29.84,NNE,23,0.0,0.7,89,0.00,,,0.00,WUHU216HW,2013-09-04 10:56:00,
2013-09-04 07:01:00,58.1,54.9,29.84,NNE,23,0.0,0.7,89,0.00,,,0.00,WUHU216HW,2013-09-04 11:01:00,
2013-09-04 07:06:00,58.3,55.4,29.84,WNW,293,0.0,0.7,90,0.00,,,0.00,WUHU216HW,2013-09-04 11:06:00,
2013-09-04 07:11:00,58.5,55.6,29.85,WNW,293,0.0,0.4,90,0.00,,,0.00,WUHU216HW,2013-09-04 11:11:00,
2013-09-04 07:16:00,58.5,55.6,29.85,WSW,248,0.4,1.1,90,0.00,,,0.00,WUHU216HW,2013-09-04 11:16:00,
2013-09-04 07:21:00,58.7,55.8,29.85,NNW,338,0.0,1.1,90,0.00,,,0.00,WUHU216HW,2013-09-04 11:21:00,
2013-09-04 07:26:00,58.7,55.8,29.85,NNW,338,0.2,0.7,90,0.00,,,0.00,WUHU216HW,2013-09-04 11:26:00,
2013-09-04 07:31:00,59.0,56.2,29.85,NNW,338,0.0,0.9,90,0.00,,,0.00,WUHU216HW,2013-09-04 11:31:00,
2013-09-04 07:36:00,59.2,56.3,29.85,North,0,0.2,1.1,90,0.00,,,0.00,WUHU216HW,2013-09-04 11:36:00,
2013-09-04 07:41:00,59.6,56.7,29.85,North,0,0.0,1.1,90,0.00,,,0.00,WUHU216HW,2013-09-04 11:41:00,
2013-09-04 07:46:00,59.8,56.9,29.85,NNW,338,0.2,0.7,90,0.00,,,0.00,WUHU216HW,2013-09-04 11:46:00,
2013-09-04 07:51:00,60.1,57.2,29.85,NW,315,0.2,0.9,90,0.00,,,0.00,WUHU216HW,2013-09-04 11:51:00,
2013-09-04 07:56:00,60.1,57.2,29.86,WNW,293,0.4,1.1,90,0.00,,,0.00,WUHU216HW,2013-09-04 11:56:00,
2013-09-04 08:01:00,60.5,57.6,29.85,WSW,248,0.4,1.8,90,0.00,,,0.00,WUHU216HW,2013-09-04 12:01:00,
2013-09-04 08:06:00,60.8,58.0,29.86,WSW,248,0.0,1.8,90,0.00,,,0.00,WUHU216HW,2013-09-04 12:06:00,
2013-09-04 08:11:00,61.0,57.8,29.86,SW,225,0.0,1.6,89,0.00,,,0.00,WUHU216HW,2013-09-04 12:11:00,
2013-09-04 08:16:00,61.4,58.1,29.86,NNW,338,0.4,0.9,89,0.00,,,0.00,WUHU216HW,2013-09-04 12:16:00,
2013-09-04 08:21:00,61.7,58.5,29.86,North,0,0.0,0.9,89,0.00,,,0.00,WUHU216HW,2013-09-04 12:21:00,
2013-09-04 08:26:00,61.9,58.4,29.86,SW,225,0.2,1.8,88,0.00,,,0.00,WUHU216HW,2013-09-04 12:26:00,
2013-09-04 08:31:00,62.3,58.7,29.86,SE,135,0.4,1.8,88,0.00,,,0.00,WUHU216HW,2013-09-04 12:31:00,
2013-09-04 08:36:00,62.6,58.8,29.86,SSE,158,1.1,1.3,87,0.00,,,0.00,WUHU216HW,2013-09-04 12:36:00,
2013-09-04 08:41:00,63.0,59.1,29.86,NNE,23,0.7,1.1,87,0.00,,,0.00,WUHU216HW,2013-09-04 12:41:00,
2013-09-04 08:46:00,63.4,59.5,29.86,North,0,0.4,1.1,87,0.00,,,0.00,WUHU216HW,2013-09-04 12:46:00,
2013-09-04 08:51:00,63.5,59.3,29.86,SW,225,0.7,2.0,86,0.00,,,0.00,WUHU216HW,2013-09-04 12:51:00,
2013-09-04 08:56:00,63.9,59.3,29.86,NE,45,0.2,4.3,85,0.00,,,0.00,WUHU216HW,2013-09-04 12:56:00,
2013-09-04 09:01:00,64.3,59.7,29.86,NW,315,0.2,4.3,85,0.00,,,0.00,WUHU216HW,2013-09-04 13:01:00,
2013-09-04 09:06:00,64.8,60.2,29.86,NNE,23,0.4,3.8,85,0.00,,,0.00,WUHU216HW,2013-09-04 13:06:00,
2013-09-04 09:11:00,65.2,60.2,29.86,NNW,338,0.0,3.8,84,0.00,,,0.00,WUHU216HW,2013-09-04 13:11:00,
2013-09-04 09:16:00,65.5,60.6,29.86,NW,315,1.1,1.8,84,0.00,,,0.00,WUHU216HW,2013-09-04 13:16:00,
2013-09-04 09:21:00,65.7,60.4,29.86,WNW,293,0.7,1.8,83,0.00,,,0.00,WUHU216HW,2013-09-04 13:21:00,
2013-09-04 09:26:00,66.1,60.4,29.86,North,0,1.6,1.8,82,0.00,,,0.00,WUHU216HW,2013-09-04 13:26:00,
2013-09-04 09:31:00,66.4,60.8,29.86,WNW,293,0.0,1.8,82,0.00,,,0.00,WUHU216HW,2013-09-04 13:31:00,
2013-09-04 09:36:00,66.6,60.7,29.86,WSW,248,0.7,2.0,81,0.00,,,0.00,WUHU216HW,2013-09-04 13:36:00,
2013-09-04 09:41:00,67.0,61.0,29.86,West,270,0.4,2.5,81,0.00,,,0.00,WUHU216HW,2013-09-04 13:41:00,
2013-09-04 09:46:00,67.3,61.0,29.85,NW,315,0.9,2.5,80,0.00,,,0.00,WUHU216HW,2013-09-04 13:46:00,
2013-09-04 09:51:00,67.3,60.3,29.85,NNW,338,3.1,3.1,78,0.00,,,0.00,WUHU216HW,2013-09-04 13:51:00,
2013-09-04 09:56:00,67.5,60.5,29.85,NNE,23,0.9,3.1,78,0.00,,,0.00,WUHU216HW,2013-09-04 13:56:00,
2013-09-04 10:01:00,67.7,61.0,29.85,NNW,338,0.0,3.1,79,0.00,,,0.00,WUHU216HW,2013-09-04 14:01:00,
2013-09-04 10:06:00,68.0,61.0,29.85,North,0,1.8,2.5,78,0.00,,,0.00,WUHU216HW,2013-09-04 14:06:00,
2013-09-04 10:11:00,68.2,60.0,29.85,NNW,338,0.7,3.4,75,0.00,,,0.00,WUHU216HW,2013-09-04 14:11:00,
2013-09-04 10:16:00,68.6,59.9,29.85,WSW,248,1.6,3.8,74,0.00,,,0.00,WUHU216HW,2013-09-04 14:16:00,
2013-09-04 10:21:00,68.8,60.5,29.85,North,0,0.2,4.7,75,0.00,,,0.00,WUHU216HW,2013-09-04 14:21:00,
2013-09-04 10:26:00,69.3,61.4,29.85,SE,135,0.4,4.7,76,0.00,,,0.00,WUHU216HW,2013-09-04 14:26:00,
2013-09-04 10:31:00,69.8,61.5,29.85,WSW,248,0.7,2.2,75,0.00,,,0.00,WUHU216HW,2013-09-04 14:31:00,
2013-09-04 10:36:00,70.4,61.3,29.85,North,0,0.7,4.0,73,0.00,,,0.00,WUHU216HW,2013-09-04 14:36:00,
2013-09-04 10:41:00,70.9,61.0,29.85,SSW,203,2.2,5.1,71,0.00,,,0.00,WUHU216HW,2013-09-04 14:41:00,
2013-09-04 10:46:00,71.6,61.7,29.85,West,270,2.9,5.1,71,0.00,,,0.00,WUHU216HW,2013-09-04 14:46:00,
2013-09-04 10:51:00,72.2,61.5,29.85,WSW,248,2.9,6.3,69,0.00,,,0.00,WUHU216HW,2013-09-04 14:51:00,
2013-09-04 10:56:00,72.7,62.8,29.85,NNE,23,1.1,6.3,71,0.00,,,0.00,WUHU216HW,2013-09-04 14:56:00,
2013-09-04 11:01:00,73.3,62.1,29.85,NNW,338,1.3,3.6,68,0.00,,,0.00,WUHU216HW,2013-09-04 15:01:00,
2013-09-04 11:06:00,73.6,60.2,29.85,NW,315,1.1,4.5,63,0.00,,,0.00,WUHU216HW,2013-09-04 15:06:00,
2013-09-04 11:11:00,74.2,62.1,29.85,North,0,1.6,4.5,66,0.00,,,0.00,WUHU216HW,2013-09-04 15:11:00,
2013-09-04 11:16:00,74.5,61.6,29.85,ENE,68,2.7,3.6,64,0.00,,,0.00,WUHU216HW,2013-09-04 15:16:00,
2013-09-04 11:21:00,75.1,62.5,29.85,SSW,203,1.6,5.8,65,0.00,,,0.00,WUHU216HW,2013-09-04 15:21:00,
2013-09-04 11:26:00,75.2,61.4,29.85,SW,225,0.9,6.3,62,0.00,,,0.00,WUHU216HW,2013-09-04 15:26:00,
2013-09-04 11:31:00,75.6,62.1,29.85,SSW,203,0.4,6.3,63,0.00,,,0.00,WUHU216HW,2013-09-04 15:31:00,
2013-09-04 11:36:00,76.0,61.6,29.85,SW,225,4.7,5.4,61,0.00,,,0.00,WUHU216HW,2013-09-04 15:36:00,
2013-09-04 11:41:00,76.3,61.9,29.85,SSW,203,0.4,5.4,61,0.00,,,0.00,WUHU216HW,2013-09-04 15:41:00,
2013-09-04 11:46:00,76.9,61.5,29.85,South,180,1.1,4.7,59,0.00,,,0.00,WUHU216HW,2013-09-04 15:46:00,
2013-09-04 11:51:00,77.0,60.1,29.85,NW,315,1.6,4.0,56,0.00,,,0.00,WUHU216HW,2013-09-04 15:51:00,
2013-09-04 11:56:00,77.4,61.5,29.85,SSW,203,2.5,4.0,58,0.00,,,0.00,WUHU216HW,2013-09-04 15:56:00,
2013-09-04 12:01:00,77.4,60.0,29.84,North,0,1.6,4.7,55,0.00,,,0.00,WUHU216HW,2013-09-04 16:01:00,
2013-09-04 12:06:00,77.8,61.3,29.84,WSW,248,0.4,4.9,57,0.00,,,0.00,WUHU216HW,2013-09-04 16:06:00,
2013-09-04 12:11:00,77.9,60.5,29.85,NW,315,0.9,4.9,55,0.00,,,0.00,WUHU216HW,2013-09-04 16:11:00,
2013-09-04 12:16:00,77.9,60.0,29.85,ENE,68,0.9,11.0,54,0.00,,,0.00,WUHU216HW,2013-09-04 16:16:00,
2013-09-04 12:21:00,78.1,61.1,29.84,NNW,338,0.7,11.0,56,0.00,,,0.00,WUHU216HW,2013-09-04 16:21:00,
2013-09-04 12:26:00,78.5,60.4,29.84,West,270,3.1,4.0,54,0.00,,,0.00,WUHU216HW,2013-09-04 16:26:00,
2013-09-04 12:31:00,78.7,60.1,29.84,NE,45,0.9,3.6,53,0.00,,,0.00,WUHU216HW,2013-09-04 16:31:00,
2013-09-04 12:36:00,78.7,60.1,29.84,ENE,68,2.2,6.3,53,0.00,,,0.00,WUHU216HW,2013-09-04 16:36:00,
2013-09-04 12:41:00,78.8,59.8,29.84,NW,315,1.6,6.3,52,0.00,,,0.00,WUHU216HW,2013-09-04 16:41:00,
2013-09-04 12:46:00,78.8,59.8,29.84,North,0,1.8,3.8,52,0.00,,,0.00,WUHU216HW,2013-09-04 16:46:00,
2013-09-04 12:51:00,78.8,59.8,29.84,West,270,2.0,4.3,52,0.00,,,0.00,WUHU216HW,2013-09-04 16:51:00,
2013-09-04 12:56:00,78.8,60.2,29.84,SW,225,1.8,7.6,53,0.00,,,0.00,WUHU216HW,2013-09-04 16:56:00,
2013-09-04 13:01:00,79.2,60.6,29.84,NNW,338,0.7,7.6,53,0.00,,,0.00,WUHU216HW,2013-09-04 17:01:00,
2013-09-04 13:06:00,79.6,59.9,29.84,West,270,2.2,5.1,51,0.00,,,0.00,WUHU216HW,2013-09-04 17:06:00,
2013-09-04 13:11:00,79.6,60.9,29.84,WSW,248,2.2,8.3,53,0.00,,,0.00,WUHU216HW,2013-09-04 17:11:00,
2013-09-04 13:16:00,79.9,61.2,29.84,West,270,1.8,8.3,53,0.00,,,0.00,WUHU216HW,2013-09-04 17:16:00,
2013-09-04 13:21:00,79.9,60.7,29.84,SSW,203,2.5,6.9,52,0.00,,,0.00,WUHU216HW,2013-09-04 17:21:00,
2013-09-04 13:26:00,80.1,59.9,29.84,SW,225,2.9,6.9,50,0.00,,,0.00,WUHU216HW,2013-09-04 17:26:00,
2013-09-04 13:31:00,80.3,59.9,29.84,North,0,1.8,5.4,50,0.00,,,0.00,WUHU216HW,2013-09-04 17:31:00,
2013-09-04 13:36:00,80.3,59.4,29.84,NNW,338,1.1,6.3,49,0.00,,,0.00,WUHU216HW,2013-09-04 17:36:00,
2013-09-04 13:41:00,80.6,60.9,29.84,SSW,203,1.3,6.3,51,0.00,,,0.00,WUHU216HW,2013-09-04 17:41:00,
2013-09-04 13:46:00,80.8,60.5,29.84,WNW,293,2.5,3.4,50,0.00,,,0.00,WUHU216HW,2013-09-04 17:46:00,
2013-09-04 13:51:00,80.8,60.5,29.84,West,270,1.3,2.9,50,0.00,,,0.00,WUHU216HW,2013-09-04 17:51:00,
2013-09-04 13:56:00,81.0,60.7,29.84,WSW,248,2.5,3.8,50,0.00,,,0.00,WUHU216HW,2013-09-04 17:56:00,
2013-09-04 14:01:00,81.0,60.7,29.84,NNW,338,2.0,3.8,50,0.00,,,0.00,WUHU216HW,2013-09-04 18:01:00,
2013-09-04 14:06:00,81.0,58.8,29.83,WNW,293,1.6,3.6,47,0.00,,,0.00,WUHU216HW,2013-09-04 18:06:00,
2013-09-04 14:11:00,80.8,59.9,29.83,WNW,293,1.1,3.6,49,0.00,,,0.00,WUHU216HW,2013-09-04 18:11:00,
2013-09-04 14:16:00,81.2,59.6,29.83,North,0,1.8,3.4,48,0.00,,,0.00,WUHU216HW,2013-09-04 18:16:00,
2013-09-04 14:21:00,81.2,59.0,29.83,West,270,1.1,4.0,47,0.00,,,0.00,WUHU216HW,2013-09-04 18:21:00,
2013-09-04 14:26:00,81.4,59.8,29.83,SSW,203,1.6,4.0,48,0.00,,,0.00,WUHU216HW,2013-09-04 18:26:00,
2013-09-04 14:31:00,81.5,59.9,29.83,North,0,1.6,4.0,48,0.00,,,0.00,WUHU216HW,2013-09-04 18:31:00,
2013-09-04 14:36:00,81.4,58.5,29.83,NW,315,2.9,4.5,46,0.00,,,0.00,WUHU216HW,2013-09-04 18:36:00,
2013-09-04 14:41:00,81.4,59.1,29.82,WSW,248,1.3,4.5,47,0.00,,,0.00,WUHU216HW,2013-09-04 18:41:00,
2013-09-04 14:46:00,81.5,59.9,29.82,North,0,0.9,2.9,48,0.00,,,0.00,WUHU216HW,2013-09-04 18:46:00,
2013-09-04 14:51:00,81.9,60.2,29.83,NNW,338,2.2,2.5,48,0.00,,,0.00,WUHU216HW,2013-09-04 18:51:00,
2013-09-04 14:56:00,82.1,59.1,29.82,South,180,3.6,3.6,46,0.00,,,0.00,WUHU216HW,2013-09-04 18:56:00,
2013-09-04 15:01:00,81.7,59.4,29.83,NE,45,0.9,4.7,47,0.00,,,0.00,WUHU216HW,2013-09-04 19:01:00,
2013-09-04 15:06:00,81.7,59.4,29.83,SSW,203,1.3,4.7,47,0.00,,,0.00,WUHU216HW,2013-09-04 19:06:00,
2013-09-04 15:11:00,81.7,58.2,29.83,NNW,338,2.5,3.6,45,0.00,,,0.00,WUHU216HW,2013-09-04 19:11:00,
2013-09-04 15:16:00,81.7,58.9,29.83,WNW,293,0.7,4.3,46,0.00,,,0.00,WUHU216HW,2013-09-04 19:16:00,
2013-09-04 15:21:00,81.7,58.9,29.83,NE,45,0.4,4.3,46,0.00,,,0.00,WUHU216HW,2013-09-04 19:21:00,
2013-09-04 15:26:00,81.7,57.6,29.83,WSW,248,2.0,4.7,44,0.00,,,0.00,WUHU216HW,2013-09-04 19:26:00,
2013-09-04 15:31:00,81.7,57.0,29.83,NW,315,0.9,4.7,43,0.00,,,0.00,WUHU216HW,2013-09-04 19:31:00,
2013-09-04 15:36:00,81.7,57.6,29.84,NE,45,0.4,3.4,44,0.00,,,0.00,WUHU216HW,2013-09-04 19:36:00,
2013-09-04 15:41:00,81.7,58.2,29.84,SW,225,3.4,3.4,45,0.00,,,0.00,WUHU216HW,2013-09-04 19:41:00,
2013-09-04 15:46:00,81.7,57.6,29.84,NW,315,1.8,3.4,44,0.00,,,0.00,WUHU216HW,2013-09-04 19:46:00,
2013-09-04 15:51:00,81.5,58.1,29.83,SW,225,4.3,4.3,45,0.00,,,0.00,WUHU216HW,2013-09-04 19:51:00,
2013-09-04 15:56:00,81.5,58.1,29.83,WSW,248,3.4,4.3,45,0.00,,,0.00,WUHU216HW,2013-09-04 19:56:00,
2013-09-04 16:01:00,81.4,59.1,29.83,NW,315,0.2,4.3,47,0.00,,,0.00,WUHU216HW,2013-09-04 20:01:00,
2013-09-04 16:06:00,81.4,57.9,29.83,WNW,293,2.5,3.4,45,0.00,,,0.00,WUHU216HW,2013-09-04 20:06:00,
2013-09-04 16:11:00,81.4,57.2,29.83,NNW,338,1.3,4.7,44,0.00,,,0.00,WUHU216HW,2013-09-04 20:11:00,
2013-09-04 16:16:00,81.2,58.3,29.83,SW,225,0.9,4.7,46,0.00,,,0.00,WUHU216HW,2013-09-04 20:16:00,
2013-09-04 16:21:00,81.0,58.8,29.83,NW,315,0.4,2.2,47,0.00,,,0.00,WUHU216HW,2013-09-04 20:21:00,
2013-09-04 16:26:00,81.0,59.4,29.83,North,0,0.4,2.2,48,0.00,,,0.00,WUHU216HW,2013-09-04 20:26:00,
2013-09-04 16:31:00,80.8,59.2,29.83,North,0,0.4,1.8,48,0.00,,,0.00,WUHU216HW,2013-09-04 20:31:00,
2013-09-04 16:36:00,80.6,59.0,29.83,WSW,248,1.1,2.2,48,0.00,,,0.00,WUHU216HW,2013-09-04 20:36:00,
2013-09-04 16:41:00,80.3,59.9,29.83,WNW,293,0.0,2.2,50,0.00,,,0.00,WUHU216HW,2013-09-04 20:41:00,
2013-09-04 16:46:00,79.9,60.2,29.83,WSW,248,1.1,1.1,51,0.00,,,0.00,WUHU216HW,2013-09-04 20:46:00,
2013-09-04 16:51:00,79.6,58.7,29.83,NNE,23,0.4,2.5,49,0.00,,,0.00,WUHU216HW,2013-09-04 20:51:00,
2013-09-04 16:56:00,79.4,59.1,29.83,SW,225,0.4,2.5,50,0.00,,,0.00,WUHU216HW,2013-09-04 20:56:00,
2013-09-04 17:01:00,79.4,60.2,29.83,South,180,1.1,1.8,52,0.00,,,0.00,WUHU216HW,2013-09-04 21:01:00,
2013-09-04 17:06:00,79.4,59.7,29.83,West,270,1.8,1.8,51,0.00,,,0.00,WUHU216HW,2013-09-04 21:06:00,
2013-09-04 17:11:00,79.2,60.0,29.83,WNW,293,0.4,2.0,52,0.00,,,0.00,WUHU216HW,2013-09-04 21:11:00,
2013-09-04 17:16:00,79.2,59.5,29.83,WSW,248,0.4,2.5,51,0.00,,,0.00,WUHU216HW,2013-09-04 21:16:00,
2013-09-04 17:21:00,79.0,61.5,29.84,SSW,203,0.4,2.5,55,0.00,,,0.00,WUHU216HW,2013-09-04 21:21:00,
2013-09-04 17:26:00,78.5,61.5,29.84,West,270,1.1,2.0,56,0.00,,,0.00,WUHU216HW,2013-09-04 21:26:00,
2013-09-04 17:31:00,77.9,60.9,29.84,North,0,0.0,2.0,56,0.00,,,0.00,WUHU216HW,2013-09-04 21:31:00,
2013-09-04 17:36:00,77.4,60.9,29.84,West,270,0.4,1.1,57,0.00,,,0.00,WUHU216HW,2013-09-04 21:36:00,
2013-09-04 17:41:00,77.0,60.6,29.84,West,270,0.7,1.1,57,0.00,,,0.00,WUHU216HW,2013-09-04 21:41:00,
2013-09-04 17:46:00,76.9,60.0,29.84,NW,315,0.2,2.0,56,0.00,,,0.00,WUHU216HW,2013-09-04 21:46:00,
2013-09-04 17:51:00,76.7,60.3,29.84,NW,315,1.1,2.5,57,0.00,,,0.00,WUHU216HW,2013-09-04 21:51:00,
2013-09-04 17:56:00,76.3,60.9,29.84,North,0,0.0,2.5,59,0.00,,,0.00,WUHU216HW,2013-09-04 21:56:00,
2013-09-04 18:01:00,76.0,61.1,29.84,SW,225,0.4,1.8,60,0.00,,,0.00,WUHU216HW,2013-09-04 22:01:00,
2013-09-04 18:06:00,75.6,60.9,29.84,WNW,293,0.0,0.9,60,0.00,,,0.00,WUHU216HW,2013-09-04 22:06:00,
2013-09-04 18:11:00,75.2,60.9,29.84,NE,45,0.0,0.9,61,0.00,,,0.00,WUHU216HW,2013-09-04 22:11:00,
2013-09-04 18:16:00,74.9,60.6,29.84,WNW,293,0.0,0.0,61,0.00,,,0.00,WUHU216HW,2013-09-04 22:16:00,
2013-09-04 18:21:00,74.5,60.7,29.84,NNW,338,0.0,0.7,62,0.00,,,0.00,WUHU216HW,2013-09-04 22:21:00,
2013-09-04 18:26:00,74.2,60.3,29.84,West,270,0.0,0.7,62,0.00,,,0.00,WUHU216HW,2013-09-04 22:26:00,
2013-09-04 18:31:00,73.8,60.4,29.84,NW,315,0.0,0.4,63,0.00,,,0.00,WUHU216HW,2013-09-04 22:31:00,
2013-09-04 18:36:00,73.4,60.5,29.84,WSW,248,0.0,0.4,64,0.00,,,0.00,WUHU216HW,2013-09-04 22:36:00,
2013-09-04 18:41:00,73.1,60.1,29.84,WSW,248,0.2,0.9,64,0.00,,,0.00,WUHU216HW,2013-09-04 22:41:00,
2013-09-04 18:46:00,72.9,60.4,29.84,WSW,248,0.0,0.9,65,0.00,,,0.00,WUHU216HW,2013-09-04 22:46:00,
2013-09-04 18:51:00,72.7,60.2,29.84,SSE,158,0.0,0.7,65,0.00,,,0.00,WUHU216HW,2013-09-04 22:51:00,
2013-09-04 18:56:00,72.4,60.0,29.85,WSW,248,0.0,1.3,65,0.00,,,0.00,WUHU216HW,2013-09-04 22:56:00,
2013-09-04 19:01:00,72.0,59.6,29.85,WSW,248,0.4,1.8,65,0.00,,,0.00,WUHU216HW,2013-09-04 23:01:00,
2013-09-04 19:06:00,71.8,59.9,29.85,West,270,0.0,1.8,66,0.00,,,0.00,WUHU216HW,2013-09-04 23:06:00,
2013-09-04 19:11:00,71.6,60.1,29.85,West,270,0.0,0.4,67,0.00,,,0.00,WUHU216HW,2013-09-04 23:11:00,
2013-09-04 19:16:00,71.3,59.8,29.85,WNW,293,0.0,0.4,67,0.00,,,0.00,WUHU216HW,2013-09-04 23:16:00,
2013-09-04 19:21:00,71.1,59.6,29.85,WNW,293,0.0,0.4,67,0.00,,,0.00,WUHU216HW,2013-09-04 23:21:00,
2013-09-04 19:26:00,70.7,59.7,29.86,WSW,248,0.0,0.0,68,0.00,,,0.00,WUHU216HW,2013-09-04 23:26:00,
2013-09-04 19:31:00,70.6,59.5,29.86,WSW,248,0.0,0.0,68,0.00,,,0.00,WUHU216HW,2013-09-04 23:31:00,
2013-09-04 19:36:00,70.2,59.1,29.86,WSW,248,0.0,0.2,68,0.00,,,0.00,WUHU216HW,2013-09-04 23:36:00,
2013-09-04 19:41:00,70.0,59.3,29.86,WSW,248,0.0,0.2,69,0.00,,,0.00,WUHU216HW,2013-09-04 23:41:00,
2013-09-04 19:46:00,69.7,59.4,29.86,SW,225,0.7,0.7,70,0.00,,,0.00,WUHU216HW,2013-09-04 23:46:00,
2013-09-04 19:51:00,69.3,59.1,29.86,SW,225,0.0,0.7,70,0.00,,,0.00,WUHU216HW,2013-09-04 23:51:00,
2013-09-04 19:56:00,69.1,59.0,29.86,WSW,248,0.0,0.7,70,0.00,,,0.00,WUHU216HW,2013-09-04 23:56:00,
2013-09-04 20:01:00,68.9,58.8,29.87,SW,225,0.0,1.1,70,0.00,,,0.00,WUHU216HW,2013-09-05 00:01:00,
2013-09-04 20:06:00,68.8,59.0,29.87,SW,225,0.0,1.1,71,0.00,,,0.00,WUHU216HW,2013-09-05 00:06:00,
2013-09-04 20:11:00,68.6,59.2,29.87,WSW,248,1.1,1.1,72,0.00,,,0.00,WUHU216HW,2013-09-05 00:11:00,
2013-09-04 20:16:00,68.2,58.9,29.87,NNW,338,0.0,1.1,72,0.00,,,0.00,WUHU216HW,2013-09-05 00:16:00,
2013-09-04 20:21:00,68.0,59.1,29.87,NW,315,0.4,1.1,73,0.00,,,0.00,WUHU216HW,2013-09-05 00:21:00,
2013-09-04 20:26:00,67.7,59.1,29.87,NW,315,0.0,0.9,74,0.00,,,0.00,WUHU216HW,2013-09-05 00:26:00,
2013-09-04 20:31:00,67.3,58.8,29.88,North,0,0.0,0.9,74,0.00,,,0.00,WUHU216HW,2013-09-05 00:31:00,
2013-09-04 20:36:00,67.1,58.6,29.88,West,270,0.0,0.4,74,0.00,,,0.00,WUHU216HW,2013-09-05 00:36:00,
2013-09-04 20:41:00,67.1,59.0,29.88,WSW,248,0.0,0.4,75,0.00,,,0.00,WUHU216HW,2013-09-05 00:41:00,
2013-09-04 20:46:00,67.0,58.8,29.88,WSW,248,0.0,0.4,75,0.00,,,0.00,WUHU216HW,2013-09-05 00:46:00,
2013-09-04 20:51:00,67.0,58.8,29.88,WSW,248,0.0,0.4,75,0.00,,,0.00,WUHU216HW,2013-09-05 00:51:00,
2013-09-04 20:56:00,66.8,59.0,29.88,SW,225,0.0,0.4,76,0.00,,,0.00,WUHU216HW,2013-09-05 00:56:00,
2013-09-04 21:01:00,66.6,58.8,29.88,NNW,338,0.0,0.4,76,0.00,,,0.00,WUHU216HW,2013-09-05 01:01:00,
2013-09-04 21:06:00,66.4,59.0,29.88,North,0,0.0,0.4,77,0.00,,,0.00,WUHU216HW,2013-09-05 01:06:00,
2013-09-04 21:11:00,66.1,58.6,29.88,NNW,338,0.4,0.9,77,0.00,,,0.00,WUHU216HW,2013-09-05 01:11:00,
2013-09-04 21:16:00,65.9,58.5,29.88,NNW,338,0.2,0.9,77,0.00,,,0.00,WUHU216HW,2013-09-05 01:16:00,
2013-09-04 21:21:00,65.5,58.2,29.88,NNW,338,0.0,0.9,77,0.00,,,0.00,WUHU216HW,2013-09-05 01:21:00,
2013-09-04 21:26:00,65.5,58.5,29.88,NNW,338,0.2,0.4,78,0.00,,,0.00,WUHU216HW,2013-09-05 01:26:00,
2013-09-04 21:31:00,65.3,58.3,29.89,WNW,293,1.1,1.1,78,0.00,,,0.00,WUHU216HW,2013-09-05 01:31:00,
2013-09-04 21:36:00,65.2,58.2,29.88,NW,315,0.9,1.1,78,0.00,,,0.00,WUHU216HW,2013-09-05 01:36:00,
2013-09-04 21:41:00,64.8,57.8,29.89,NW,315,0.2,1.1,78,0.00,,,0.00,WUHU216HW,2013-09-05 01:41:00,
2013-09-04 21:46:00,64.8,57.8,29.88,WNW,293,0.0,0.9,78,0.00,,,0.00,WUHU216HW,2013-09-05 01:46:00,
2013-09-04 21:51:00,64.8,57.8,29.88,WSW,248,0.0,0.7,78,0.00,,,0.00,WUHU216HW,2013-09-05 01:51:00,
2013-09-04 21:56:00,64.8,57.8,29.88,WSW,248,0.0,0.7,78,0.00,,,0.00,WUHU216HW,2013-09-05 01:56:00,
2013-09-04 22:01:00,64.8,57.8,29.88,WNW,293,0.0,0.0,78,0.00,,,0.00,WUHU216HW,2013-09-05 02:01:00,
2013-09-04 22:06:00,64.8,57.8,29.88,West,270,0.0,0.0,78,0.00,,,0.00,WUHU216HW,2013-09-05 02:06:00,
2013-09-04 22:11:00,64.8,58.2,29.88,WSW,248,0.0,0.7,79,0.00,,,0.00,WUHU216HW,2013-09-05 02:11:00,
2013-09-04 22:16:00,64.6,58.0,29.88,WSW,248,0.0,0.7,79,0.00,,,0.00,WUHU216HW,2013-09-05 02:16:00,
2013-09-04 22:21:00,64.4,57.8,29.88,WSW,248,0.0,0.7,79,0.00,,,0.00,WUHU216HW,2013-09-05 02:21:00,
2013-09-04 22:26:00,64.4,57.8,29.89,NNW,338,0.0,0.7,79,0.00,,,0.00,WUHU216HW,2013-09-05 02:26:00,
2013-09-04 22:31:00,64.3,58.0,29.88,NW,315,0.0,0.2,80,0.00,,,0.00,WUHU216HW,2013-09-05 02:31:00,
2013-09-04 22:36:00,64.1,57.4,29.88,NW,315,0.0,0.4,79,0.00,,,0.00,WUHU216HW,2013-09-05 02:36:00,
2013-09-04 22:41:00,63.7,57.1,29.89,NNW,338,0.4,0.4,79,0.00,,,0.00,WUHU216HW,2013-09-05 02:41:00,
2013-09-04 22:46:00,63.7,57.1,29.89,North,0,0.4,0.9,79,0.00,,,0.00,WUHU216HW,2013-09-05 02:46:00,
2013-09-04 22:51:00,63.4,56.7,29.88,NNW,338,0.0,0.9,79,0.00,,,0.00,WUHU216HW,2013-09-05 02:51:00,
2013-09-04 22:56:00,63.4,56.7,29.88,NW,315,0.0,0.9,79,0.00,,,0.00,WUHU216HW,2013-09-05 02:56:00,
2013-09-04 23:01:00,63.2,56.9,29.89,NE,45,0.0,0.7,80,0.00,,,0.00,WUHU216HW,2013-09-05 03:01:00,
2013-09-04 23:06:00,63.2,56.9,29.88,NNW,338,0.0,0.7,80,0.00,,,0.00,WUHU216HW,2013-09-05 03:06:00,
2013-09-04 23:11:00,63.0,56.7,29.89,NNW,338,0.4,0.7,80,0.00,,,0.00,WUHU216HW,2013-09-05 03:11:00,
2013-09-04 23:16:00,62.8,56.5,29.88,WNW,293,0.0,0.7,80,0.00,,,0.00,WUHU216HW,2013-09-05 03:16:00,
2013-09-04 23:21:00,62.8,56.5,29.88,NNW,338,0.0,0.7,80,0.00,,,0.00,WUHU216HW,2013-09-05 03:21:00,
2013-09-04 23:26:00,62.6,56.3,29.88,NNW,338,0.0,0.0,80,0.00,,,0.00,WUHU216HW,2013-09-05 03:26:00,
2013-09-04 23:31:00,62.6,56.3,29.88,North,0,0.0,0.0,80,0.00,,,0.00,WUHU216HW,2013-09-05 03:31:00,
2013-09-04 23:36:00,62.6,56.3,29.88,North,0,0.0,0.0,80,0.00,,,0.00,WUHU216HW,2013-09-05 03:36:00,
2013-09-04 23:41:00,62.5,56.2,29.88,NNE,23,0.0,0.0,80,0.00,,,0.00,WUHU216HW,2013-09-05 03:41:00,
2013-09-04 23:46:00,62.3,56.0,29.88,SE,135,0.0,0.0,80,0.00,,,0.00,WUHU216HW,2013-09-05 03:46:00,
2013-09-04 23:51:00,62.1,56.2,29.88,SE,135,0.0,0.0,81,0.00,,,0.00,WUHU216HW,2013-09-05 03:51:00,
2013-09-04 23:56:00,61.9,56.1,29.88,ESE,113,0.0,0.0,81,0.00,,,0.00,WUHU216HW,2013-09-05 03:56:00,